createdAt,value
2018-05-21T00:00:36.479Z,25.49
2018-05-21T00:01:36.445Z,25.43
2018-05-21T00:02:36.432Z,25.52
2018-05-21T00:03:36.380Z,25.52
2018-05-21T00:04:36.335Z,25.48
2018-05-21T00:05:36.307Z,25.52
2018-05-21T00:06:36.264Z,25.44
2018-05-21T00:07:36.230Z,25.52
2018-05-21T00:08:36.221Z,25.56
2018-05-21T00:09:36.157Z,25.44
2018-05-21T00:10:36.127Z,25.43
2018-05-21T00:11:36.088Z,25.48
2018-05-21T00:12:36.049Z,25.51
2018-05-21T00:13:36.025Z,25.46
2018-05-21T00:14:35.999Z,25.52
2018-05-21T00:15:35.947Z,25.44
2018-05-21T00:16:35.908Z,25.48
2018-05-21T00:17:35.870Z,25.48
2018-05-21T00:18:35.839Z,25.44
2018-05-21T00:19:35.796Z,25.43
2018-05-21T00:20:35.785Z,25.51
2018-05-21T00:21:35.727Z,25.44
2018-05-21T00:22:35.693Z,25.54
2018-05-21T00:23:35.654Z,25.43
2018-05-21T00:24:35.621Z,25.48
2018-05-21T00:25:35.584Z,25.48
2018-05-21T00:26:35.580Z,25.48
2018-05-21T00:27:35.514Z,25.41
2018-05-21T00:28:35.479Z,25.43
2018-05-21T00:29:35.439Z,25.48
2018-05-21T00:30:35.405Z,25.48
2018-05-21T00:31:35.370Z,25.48
2018-05-21T00:32:35.358Z,25.55
2018-05-21T00:33:35.302Z,25.48
2018-05-21T00:34:35.260Z,25.43
2018-05-21T00:35:35.235Z,25.44
2018-05-21T00:36:35.190Z,25.40
2018-05-21T00:37:35.159Z,25.46
2018-05-21T00:38:35.142Z,25.41
2018-05-21T00:39:35.084Z,25.46
2018-05-21T00:40:35.048Z,25.49
2018-05-21T00:41:35.012Z,25.39
2018-05-21T00:42:34.972Z,25.49
2018-05-21T00:43:34.943Z,25.41
2018-05-21T00:44:34.925Z,25.43
2018-05-21T00:45:34.867Z,25.49
2018-05-21T00:46:34.833Z,25.44
2018-05-21T00:47:34.794Z,25.46
2018-05-21T00:48:34.763Z,25.43
2018-05-21T00:49:34.722Z,25.46
2018-05-21T00:50:34.715Z,25.40
2018-05-21T00:51:34.651Z,25.46
2018-05-21T00:52:34.624Z,25.39
2018-05-21T00:53:34.580Z,25.43
2018-05-21T00:54:34.545Z,25.48
2018-05-21T00:55:34.509Z,25.46
2018-05-21T00:56:34.496Z,25.43
2018-05-21T00:57:34.438Z,25.41
2018-05-21T00:58:34.402Z,25.49
2018-05-21T00:59:34.369Z,25.40
2018-05-21T01:00:34.330Z,25.46
2018-05-21T01:01:34.297Z,25.43
2018-05-21T01:02:34.284Z,25.46
2018-05-21T01:03:34.224Z,25.43
2018-05-21T01:04:34.188Z,25.48
2018-05-21T01:05:34.150Z,25.46
2018-05-21T01:06:34.116Z,25.46
2018-05-21T01:07:34.078Z,25.46
2018-05-21T01:08:34.071Z,25.40
2018-05-21T01:09:34.007Z,25.43
2018-05-21T01:10:33.972Z,25.39
2018-05-21T01:11:33.935Z,25.40
2018-05-21T01:12:33.902Z,25.41
2018-05-21T01:13:33.862Z,25.41
2018-05-21T01:14:33.853Z,25.40
2018-05-21T01:15:33.791Z,25.40
2018-05-21T01:16:33.757Z,25.43
2018-05-21T01:17:33.723Z,25.37
2018-05-21T01:18:33.685Z,25.43
2018-05-21T01:19:33.651Z,25.39
2018-05-21T01:20:33.646Z,25.41
2018-05-21T01:21:33.576Z,25.43
2018-05-21T01:22:33.541Z,25.44
2018-05-21T01:23:33.510Z,25.40
2018-05-21T01:24:33.469Z,25.46
2018-05-21T01:25:33.433Z,25.43
2018-05-21T01:26:33.419Z,25.40
2018-05-21T01:27:33.369Z,25.37
2018-05-21T01:28:33.322Z,25.43
2018-05-21T01:29:33.296Z,25.39
2018-05-21T01:30:33.250Z,25.44
2018-05-21T01:31:33.216Z,25.40
2018-05-21T01:32:33.203Z,25.34
2018-05-21T01:33:33.147Z,25.43
2018-05-21T01:34:33.110Z,25.39
2018-05-21T01:35:33.074Z,25.44
2018-05-21T01:36:33.039Z,25.43
2018-05-21T01:37:33.001Z,25.37
2018-05-21T01:38:32.996Z,25.44
2018-05-21T01:39:32.931Z,25.34
2018-05-21T01:40:32.896Z,25.37
2018-05-21T01:41:32.857Z,25.44
2018-05-21T01:42:32.822Z,25.51
2018-05-21T01:43:32.790Z,25.39
2018-05-21T01:44:32.785Z,25.39
2018-05-21T01:45:32.714Z,25.34
2018-05-21T01:46:32.679Z,25.40
2018-05-21T01:47:32.642Z,25.43
2018-05-21T01:48:32.609Z,25.40
2018-05-21T01:49:32.570Z,25.39
2018-05-21T01:50:32.555Z,25.41
2018-05-21T01:51:32.501Z,25.46
2018-05-21T01:52:32.466Z,25.44
2018-05-21T01:53:32.428Z,25.43
2018-05-21T01:54:32.391Z,25.41
2018-05-21T01:55:32.358Z,25.36
2018-05-21T01:56:32.341Z,25.36
2018-05-21T01:57:32.284Z,25.44
2018-05-21T01:58:32.249Z,25.39
2018-05-21T01:59:32.215Z,25.41
2018-05-21T02:00:32.177Z,25.36
2018-05-21T02:01:32.140Z,25.43
2018-05-21T02:02:32.124Z,25.37
2018-05-21T02:03:32.070Z,25.40
2018-05-21T02:04:32.035Z,25.33
2018-05-21T02:05:31.994Z,25.37
2018-05-21T02:06:31.961Z,25.41
2018-05-21T02:07:31.921Z,25.39
2018-05-21T02:08:32.019Z,25.39
2018-05-21T02:09:31.849Z,25.36
2018-05-21T02:10:31.816Z,25.37
2018-05-21T02:11:31.777Z,25.34
2018-05-21T02:12:31.751Z,25.37
2018-05-21T02:13:31.707Z,25.40
2018-05-21T02:14:31.698Z,25.39
2018-05-21T02:15:31.635Z,25.39
2018-05-21T02:16:31.601Z,25.39
2018-05-21T02:17:31.563Z,25.30
2018-05-21T02:18:31.532Z,25.37
2018-05-21T02:19:31.491Z,25.40
2018-05-21T02:20:31.479Z,25.33
2018-05-21T02:21:31.419Z,25.37
2018-05-21T02:22:31.383Z,25.37
2018-05-21T02:23:31.351Z,25.37
2018-05-21T02:24:31.323Z,25.33
2018-05-21T02:25:31.281Z,25.34
2018-05-21T02:26:31.259Z,25.37
2018-05-21T02:27:31.206Z,25.41
2018-05-21T02:28:31.168Z,25.39
2018-05-21T02:29:31.134Z,25.31
2018-05-21T02:30:31.098Z,25.31
2018-05-21T02:31:31.062Z,25.36
2018-05-21T02:32:31.057Z,25.39
2018-05-21T02:33:30.990Z,25.31
2018-05-21T02:34:30.951Z,25.34
2018-05-21T02:35:30.923Z,25.31
2018-05-21T02:36:30.881Z,25.33
2018-05-21T02:37:30.844Z,25.36
2018-05-21T02:38:30.837Z,25.37
2018-05-21T02:39:30.774Z,25.36
2018-05-21T02:40:30.739Z,25.37
2018-05-21T02:41:30.697Z,25.34
2018-05-21T02:42:30.665Z,25.26
2018-05-21T02:43:30.630Z,25.36
2018-05-21T02:44:30.617Z,25.26
2018-05-21T02:45:30.560Z,25.34
2018-05-21T02:46:30.521Z,25.34
2018-05-21T02:47:30.483Z,25.25
2018-05-21T02:48:30.449Z,25.31
2018-05-21T02:49:30.410Z,25.30
2018-05-21T02:50:30.404Z,25.34
2018-05-21T02:51:30.339Z,25.33
2018-05-21T02:52:30.303Z,25.36
2018-05-21T02:53:30.274Z,25.34
2018-05-21T02:54:30.231Z,25.31
2018-05-21T02:55:30.199Z,25.24
2018-05-21T02:56:30.190Z,25.29
2018-05-21T02:57:30.124Z,25.30
2018-05-21T02:58:30.094Z,25.33
2018-05-21T02:59:30.052Z,25.34
2018-05-21T03:00:30.015Z,25.30
2018-05-21T03:01:29.980Z,25.31
2018-05-21T03:02:29.965Z,25.29
2018-05-21T03:03:29.910Z,25.25
2018-05-21T03:04:29.879Z,25.25
2018-05-21T03:05:29.837Z,25.33
2018-05-21T03:06:29.799Z,25.25
2018-05-21T03:07:29.763Z,25.24
2018-05-21T03:08:29.756Z,25.24
2018-05-21T03:09:29.691Z,25.30
2018-05-21T03:10:29.658Z,25.26
2018-05-21T03:11:29.620Z,25.25
2018-05-21T03:12:29.583Z,25.29
2018-05-21T03:13:29.551Z,25.24
2018-05-21T03:14:29.532Z,25.21
2018-05-21T03:15:29.478Z,25.22
2018-05-21T03:16:29.442Z,25.22
2018-05-21T03:17:29.406Z,25.24
2018-05-21T03:18:29.367Z,25.33
2018-05-21T03:19:29.331Z,25.22
2018-05-21T03:20:29.330Z,25.19
2018-05-21T03:21:29.257Z,25.25
2018-05-21T03:22:29.219Z,25.30
2018-05-21T03:23:29.185Z,25.19
2018-05-21T03:24:29.149Z,25.22
2018-05-21T03:25:29.114Z,25.25
2018-05-21T03:26:29.106Z,25.29
2018-05-21T03:27:29.041Z,25.24
2018-05-21T03:28:29.008Z,25.22
2018-05-21T03:29:28.970Z,25.19
2018-05-21T03:30:28.933Z,25.24
2018-05-21T03:31:28.899Z,25.22
2018-05-21T03:32:28.883Z,25.29
2018-05-21T03:33:28.823Z,25.19
2018-05-21T03:34:28.791Z,25.30
2018-05-21T03:35:28.753Z,25.22
2018-05-21T03:36:28.728Z,25.29
2018-05-21T03:37:28.684Z,25.24
2018-05-21T03:38:28.748Z,25.25
2018-05-21T03:39:28.609Z,25.18
2018-05-21T03:40:28.580Z,25.24
2018-05-21T03:41:28.533Z,25.22
2018-05-21T03:42:28.552Z,25.22
2018-05-21T03:43:28.465Z,25.18
2018-05-21T03:44:28.450Z,25.16
2018-05-21T03:45:28.395Z,25.22
2018-05-21T03:46:28.355Z,25.21
2018-05-21T03:47:28.329Z,25.29
2018-05-21T03:48:28.285Z,25.19
2018-05-21T03:49:28.247Z,25.21
2018-05-21T03:50:28.233Z,25.22
2018-05-21T03:51:28.178Z,25.24
2018-05-21T03:52:28.140Z,25.21
2018-05-21T03:53:28.109Z,25.21
2018-05-21T03:54:28.071Z,25.21
2018-05-21T03:55:28.035Z,25.16
2018-05-21T03:56:28.022Z,25.16
2018-05-21T03:57:27.960Z,25.21
2018-05-21T03:58:27.923Z,25.16
2018-05-21T03:59:27.886Z,25.21
2018-05-21T04:00:27.853Z,25.18
2018-05-21T04:01:27.813Z,25.12
2018-05-21T04:02:27.804Z,25.21
2018-05-21T04:03:27.742Z,25.18
2018-05-21T04:04:27.755Z,25.15
2018-05-21T04:05:27.671Z,25.15
2018-05-21T04:06:27.638Z,25.21
2018-05-21T04:07:27.596Z,25.18
2018-05-21T04:08:27.707Z,25.18
2018-05-21T04:09:27.525Z,25.24
2018-05-21T04:10:27.491Z,25.24
2018-05-21T04:11:27.453Z,25.16
2018-05-21T04:12:27.418Z,25.21
2018-05-21T04:13:27.380Z,25.15
2018-05-21T04:14:27.365Z,25.11
2018-05-21T04:15:27.316Z,25.18
2018-05-21T04:16:27.272Z,25.18
2018-05-21T04:17:27.239Z,25.15
2018-05-21T04:18:27.201Z,25.22
2018-05-21T04:19:27.166Z,25.24
2018-05-21T04:20:27.156Z,25.11
2018-05-21T04:21:27.095Z,25.18
2018-05-21T04:22:27.060Z,25.15
2018-05-21T04:23:27.021Z,25.12
2018-05-21T04:24:26.986Z,25.22
2018-05-21T04:25:26.952Z,25.19
2018-05-21T04:26:26.934Z,25.12
2018-05-21T04:27:26.877Z,25.12
2018-05-21T04:28:26.841Z,25.18
2018-05-21T04:29:26.806Z,25.22
2018-05-21T04:30:26.771Z,25.22
2018-05-21T04:31:26.730Z,25.21
2018-05-21T04:32:26.752Z,25.14
2018-05-21T04:33:26.658Z,25.12
2018-05-21T04:34:26.625Z,25.12
2018-05-21T04:35:26.586Z,25.16
2018-05-21T04:36:26.603Z,25.12
2018-05-21T04:37:26.518Z,25.12
2018-05-21T04:38:26.502Z,25.15
2018-05-21T04:39:26.443Z,25.22
2018-05-21T04:40:26.410Z,25.18
2018-05-21T04:41:26.368Z,25.26
2018-05-21T04:42:26.344Z,25.24
2018-05-21T04:43:26.297Z,25.19
2018-05-21T04:44:26.286Z,25.19
2018-05-21T04:45:26.225Z,25.22
2018-05-21T04:46:26.187Z,25.25
2018-05-21T04:47:26.156Z,25.16
2018-05-21T04:48:26.116Z,25.16
2018-05-21T04:49:26.082Z,25.18
2018-05-21T04:50:26.064Z,25.16
2018-05-21T04:51:26.010Z,25.26
2018-05-21T04:52:25.972Z,25.14
2018-05-21T04:53:25.941Z,25.18
2018-05-21T04:54:25.896Z,25.26
2018-05-21T04:55:25.867Z,25.22
2018-05-21T04:56:25.888Z,25.21
2018-05-21T04:57:25.830Z,25.19
2018-05-21T04:58:25.769Z,25.21
2018-05-21T04:59:25.723Z,25.16
2018-05-21T05:00:25.682Z,25.25
2018-05-21T05:01:25.647Z,25.26
2018-05-21T05:02:25.640Z,25.25
2018-05-21T05:03:25.574Z,25.18
2018-05-21T05:04:25.541Z,25.24
2018-05-21T05:05:25.508Z,25.21
2018-05-21T05:06:25.467Z,25.22
2018-05-21T05:07:25.435Z,25.25
2018-05-21T05:08:25.425Z,25.19
2018-05-21T05:09:25.356Z,25.24
2018-05-21T05:10:25.323Z,25.22
2018-05-21T05:11:25.290Z,25.25
2018-05-21T05:12:25.252Z,25.24
2018-05-21T05:13:25.212Z,25.18
2018-05-21T05:14:25.205Z,25.22
2018-05-21T05:15:25.138Z,25.25
2018-05-21T05:16:25.106Z,25.21
2018-05-21T05:17:25.075Z,25.24
2018-05-21T05:18:25.033Z,25.22
2018-05-21T05:19:24.998Z,25.22
2018-05-21T05:20:24.988Z,25.30
2018-05-21T05:21:24.923Z,25.24
2018-05-21T05:22:25.298Z,25.24
2018-05-21T05:23:24.855Z,25.31
2018-05-21T05:24:24.818Z,25.25
2018-05-21T05:25:24.802Z,25.30
2018-05-21T05:26:24.744Z,25.30
2018-05-21T05:27:24.709Z,25.25
2018-05-21T05:28:24.684Z,25.31
2018-05-21T05:29:24.641Z,25.33
2018-05-21T05:30:24.598Z,25.31
2018-05-21T05:31:24.591Z,25.25
2018-05-21T05:32:24.536Z,25.30
2018-05-21T05:33:24.495Z,25.34
2018-05-21T05:34:24.460Z,25.33
2018-05-21T05:35:24.419Z,25.34
2018-05-21T05:36:24.457Z,25.30
2018-05-21T05:37:24.362Z,25.30
2018-05-21T05:38:24.323Z,25.39
2018-05-21T05:39:24.280Z,25.37
2018-05-21T05:40:24.241Z,25.37
2018-05-21T05:41:24.317Z,25.33
2018-05-21T05:42:24.171Z,25.36
2018-05-21T05:43:24.158Z,25.31
2018-05-21T05:44:24.095Z,25.31
2018-05-21T05:45:24.057Z,25.26
2018-05-21T05:46:24.023Z,25.40
2018-05-21T05:47:23.985Z,25.36
2018-05-21T05:48:23.955Z,25.41
2018-05-21T05:49:23.939Z,25.40
2018-05-21T05:50:23.877Z,25.37
2018-05-21T05:52:55.958Z,25.36
2018-05-21T05:53:55.998Z,25.40
2018-05-21T05:54:55.901Z,25.33
2018-05-21T05:55:55.837Z,25.41
2018-05-21T05:56:55.808Z,25.34
2018-05-21T05:57:55.779Z,25.36
2018-05-21T05:58:55.731Z,25.37
2018-05-21T05:59:55.698Z,25.41
2018-05-21T06:00:55.685Z,25.37
2018-05-21T06:01:55.625Z,25.48
2018-05-21T06:02:55.587Z,25.46
2018-05-21T06:03:55.556Z,25.44
2018-05-21T06:04:55.524Z,25.36
2018-05-21T06:05:55.557Z,25.48
2018-05-21T06:06:55.442Z,25.40
2018-05-21T06:07:55.410Z,25.41
2018-05-21T06:08:55.369Z,25.39
2018-05-21T06:09:55.335Z,25.41
2018-05-21T06:10:55.325Z,25.40
2018-05-21T06:11:55.266Z,25.43
2018-05-21T06:12:55.227Z,25.48
2018-05-21T06:13:55.189Z,25.41
2018-05-21T06:14:55.156Z,25.41
2018-05-21T06:15:55.131Z,25.39
2018-05-21T06:16:55.105Z,25.39
2018-05-21T06:17:55.043Z,25.40
2018-05-21T06:18:55.011Z,25.44
2018-05-21T06:19:54.971Z,25.43
2018-05-21T06:20:54.939Z,25.41
2018-05-21T06:21:54.901Z,25.39
2018-05-21T06:22:54.896Z,25.40
2018-05-21T06:23:54.828Z,25.48
2018-05-21T06:24:54.797Z,25.43
2018-05-21T06:25:54.851Z,25.41
2018-05-21T06:26:54.721Z,25.40
2018-05-21T06:27:54.689Z,25.40
2018-05-21T06:28:54.673Z,25.40
2018-05-21T06:29:54.614Z,25.46
2018-05-21T06:30:54.576Z,25.44
2018-05-21T06:31:54.543Z,25.44
2018-05-21T06:32:54.508Z,25.48
2018-05-21T06:33:54.519Z,25.44
2018-05-21T06:34:54.456Z,25.44
2018-05-21T06:35:54.399Z,25.43
2018-05-21T06:36:54.359Z,25.49
2018-05-21T06:37:54.328Z,25.43
2018-05-21T06:38:54.287Z,25.46
2018-05-21T06:39:54.260Z,25.55
2018-05-21T06:40:54.246Z,25.43
2018-05-21T06:41:54.184Z,25.52
2018-05-21T06:42:54.143Z,25.48
2018-05-21T06:43:54.128Z,25.49
2018-05-21T06:44:54.078Z,25.46
2018-05-21T06:45:54.037Z,25.49
2018-05-21T06:46:54.035Z,25.41
2018-05-21T06:47:53.975Z,25.36
2018-05-21T06:48:53.934Z,25.16
2018-05-21T06:49:53.895Z,25.09
2018-05-21T06:50:53.868Z,24.88
2018-05-21T06:51:53.828Z,24.58
2018-05-21T06:52:53.808Z,24.43
2018-05-21T06:53:53.757Z,24.21
2018-05-21T06:54:53.716Z,24.09
2018-05-21T06:55:53.676Z,23.88
2018-05-21T06:56:53.664Z,23.76
2018-05-21T06:57:53.602Z,23.59
2018-05-21T06:58:53.615Z,23.39
2018-05-21T06:59:53.580Z,23.28
2018-05-21T07:00:53.498Z,23.25
2018-05-21T07:01:53.462Z,23.06
2018-05-21T07:02:53.430Z,22.88
2018-05-21T07:03:53.387Z,22.88
2018-05-21T07:04:53.380Z,22.77
2018-05-21T07:05:53.310Z,22.62
2018-05-21T07:06:53.269Z,22.52
2018-05-21T07:07:53.242Z,22.55
2018-05-21T07:08:53.207Z,22.36
2018-05-21T07:09:53.174Z,22.30
2018-05-21T07:10:53.144Z,22.33
2018-05-21T07:11:53.088Z,22.19
2018-05-21T07:12:53.045Z,22.14
2018-05-21T07:13:53.009Z,22.16
2018-05-21T07:14:52.968Z,22.10
2018-05-21T07:15:52.940Z,22.01
2018-05-21T07:16:52.919Z,22.10
2018-05-21T07:17:52.859Z,21.99
2018-05-21T07:18:52.849Z,22.01
2018-05-21T07:19:52.781Z,22.00
2018-05-21T07:20:52.746Z,21.99
2018-05-21T07:21:52.707Z,21.99
2018-05-21T07:22:52.667Z,22.01
2018-05-21T07:23:52.634Z,21.88
2018-05-21T07:24:52.628Z,21.85
2018-05-21T07:25:52.549Z,21.85
2018-05-21T07:26:52.522Z,21.89
2018-05-21T07:27:52.490Z,21.83
2018-05-21T07:28:52.446Z,21.88
2018-05-21T07:29:52.401Z,21.88
2018-05-21T07:30:52.385Z,21.81
2018-05-21T07:31:52.326Z,21.77
2018-05-21T07:32:52.296Z,21.85
2018-05-21T07:33:52.249Z,21.80
2018-05-21T07:34:52.208Z,21.89
2018-05-21T07:35:52.171Z,21.81
2018-05-21T07:36:52.161Z,21.85
2018-05-21T07:37:52.098Z,21.88
2018-05-21T07:38:52.150Z,21.88
2018-05-21T07:39:52.019Z,21.85
2018-05-21T07:40:51.979Z,21.85
2018-05-21T07:41:51.955Z,21.84
2018-05-21T07:42:51.926Z,21.85
2018-05-21T07:43:51.870Z,21.88
2018-05-21T07:44:51.868Z,21.91
2018-05-21T07:45:51.792Z,21.97
2018-05-21T07:46:51.751Z,21.96
2018-05-21T07:47:51.715Z,21.97
2018-05-21T07:48:51.698Z,22.10
2018-05-21T07:49:51.637Z,22.07
2018-05-21T07:50:51.616Z,22.15
2018-05-21T07:51:51.561Z,22.14
2018-05-21T07:52:51.534Z,22.15
2018-05-21T07:53:51.494Z,22.18
2018-05-21T07:54:51.484Z,22.18
2018-05-21T07:55:51.413Z,22.16
2018-05-21T07:56:51.385Z,22.22
2018-05-21T07:57:51.381Z,22.10
2018-05-21T07:58:51.303Z,22.23
2018-05-21T07:59:51.264Z,22.28
2018-05-21T08:00:51.223Z,22.40
2018-05-21T08:01:51.186Z,22.40
2018-05-21T08:02:51.151Z,22.59
2018-05-21T08:03:51.135Z,22.63
2018-05-21T08:04:51.093Z,22.61
2018-05-21T08:05:51.037Z,22.80
2018-05-21T08:06:51.001Z,22.89
2018-05-21T08:07:50.962Z,22.95
2018-05-21T08:08:50.930Z,23.06
2018-05-21T08:09:50.924Z,23.08
2018-05-21T08:10:50.849Z,23.17
2018-05-21T08:11:50.808Z,23.23
2018-05-21T08:12:50.796Z,23.29
2018-05-21T08:13:50.740Z,23.32
2018-05-21T08:14:50.785Z,23.33
2018-05-21T08:15:50.682Z,23.47
2018-05-21T08:16:50.630Z,23.59
2018-05-21T08:17:50.590Z,23.70
2018-05-21T08:18:50.580Z,23.66
2018-05-21T08:19:50.526Z,23.77
2018-05-21T08:20:50.507Z,23.85
2018-05-21T08:21:50.439Z,23.89
2018-05-21T08:22:50.404Z,23.94
2018-05-21T08:23:50.368Z,23.99
2018-05-21T08:24:50.351Z,24.03
2018-05-21T08:25:50.290Z,24.00
2018-05-21T08:26:50.310Z,24.07
2018-05-21T08:27:50.219Z,24.07
2018-05-21T08:28:50.284Z,24.19
2018-05-21T08:29:50.195Z,24.19
2018-05-21T08:30:50.108Z,24.16
2018-05-21T08:31:50.069Z,24.36
2018-05-21T08:32:50.061Z,24.38
2018-05-21T08:33:50.004Z,24.32
2018-05-21T08:34:49.975Z,24.40
2018-05-21T08:35:49.930Z,24.53
2018-05-21T08:36:49.889Z,24.46
2018-05-21T08:37:49.848Z,24.53
2018-05-21T08:38:49.837Z,24.59
2018-05-21T08:39:49.774Z,24.63
2018-05-21T08:40:49.738Z,24.65
2018-05-21T08:41:49.710Z,24.77
2018-05-21T08:42:49.689Z,24.78
2018-05-21T08:43:49.630Z,24.79
2018-05-21T08:44:49.615Z,24.82
2018-05-21T08:45:49.558Z,24.86
2018-05-21T08:46:49.523Z,24.93
2018-05-21T08:47:49.485Z,24.82
2018-05-21T08:48:49.463Z,24.99
2018-05-21T08:49:49.409Z,24.99
2018-05-21T08:50:49.410Z,25.01
2018-05-21T08:51:49.337Z,24.94
2018-05-21T08:52:49.307Z,25.01
2018-05-21T08:53:49.265Z,25.03
2018-05-21T08:54:49.226Z,25.07
2018-05-21T08:55:49.201Z,25.14
2018-05-21T08:56:49.177Z,25.12
2018-05-21T08:57:49.121Z,25.07
2018-05-21T08:58:49.092Z,25.18
2018-05-21T08:59:49.047Z,25.15
2018-05-21T09:00:49.010Z,25.11
2018-05-21T09:01:48.975Z,25.15
2018-05-21T09:02:48.958Z,25.22
2018-05-21T09:03:48.903Z,25.16
2018-05-21T09:04:48.932Z,25.26
2018-05-21T09:05:48.833Z,25.22
2018-05-21T09:08:20.961Z,25.31
2018-05-21T09:09:20.905Z,25.34
2018-05-21T09:10:20.863Z,25.36
2018-05-21T09:11:20.827Z,25.37
2018-05-21T09:12:20.867Z,25.39
2018-05-21T09:13:20.780Z,25.41
2018-05-21T09:14:20.720Z,25.37
2018-05-21T09:15:20.684Z,25.44
2018-05-21T09:16:20.715Z,25.41
2018-05-21T09:17:20.611Z,25.51
2018-05-21T09:18:20.577Z,25.40
2018-05-21T09:19:20.565Z,25.36
2018-05-21T09:20:20.506Z,25.48
2018-05-21T09:21:20.468Z,25.43
2018-05-21T09:22:20.436Z,25.43
2018-05-21T09:23:20.404Z,25.48
2018-05-21T09:24:20.363Z,25.43
2018-05-21T09:25:20.344Z,25.43
2018-05-21T09:26:20.289Z,25.43
2018-05-21T09:27:20.253Z,25.49
2018-05-21T09:28:20.218Z,25.41
2018-05-21T09:29:20.182Z,25.49
2018-05-21T09:30:20.144Z,25.52
2018-05-21T09:31:20.193Z,25.52
2018-05-21T09:32:20.092Z,25.52
2018-05-21T09:33:20.040Z,25.55
2018-05-21T09:34:20.003Z,25.56
2018-05-21T09:35:19.967Z,25.52
2018-05-21T09:36:19.943Z,25.63
2018-05-21T09:37:19.918Z,25.62
2018-05-21T09:38:19.855Z,25.63
2018-05-21T09:39:19.826Z,25.62
2018-05-21T09:40:19.785Z,25.66
2018-05-21T09:41:19.750Z,25.71
2018-05-21T09:42:19.713Z,25.68
2018-05-21T09:43:20.170Z,25.70
2018-05-21T09:44:19.643Z,25.70
2018-05-21T09:45:19.610Z,25.66
2018-05-21T09:46:19.573Z,25.70
2018-05-21T09:47:19.535Z,25.73
2018-05-21T09:48:19.509Z,25.70
2018-05-21T09:49:19.480Z,25.77
2018-05-21T09:50:19.425Z,25.80
2018-05-21T09:51:19.393Z,25.77
2018-05-21T09:52:19.356Z,25.83
2018-05-21T09:53:19.321Z,25.77
2018-05-21T09:54:19.288Z,25.73
2018-05-21T09:55:19.269Z,25.83
2018-05-21T09:56:19.212Z,25.83
2018-05-21T09:57:19.178Z,25.85
2018-05-21T09:58:19.144Z,25.86
2018-05-21T09:59:19.102Z,25.89
2018-05-21T10:00:19.069Z,25.93
2018-05-21T10:01:19.057Z,25.88
2018-05-21T10:02:19.021Z,25.91
2018-05-21T10:03:18.961Z,25.93
2018-05-21T10:04:18.930Z,25.96
2018-05-21T10:05:18.990Z,25.95
2018-05-21T10:06:18.856Z,25.95
2018-05-21T10:07:18.843Z,25.95
2018-05-21T10:08:18.786Z,25.95
2018-05-21T10:09:18.753Z,25.91
2018-05-21T10:10:18.711Z,26.01
2018-05-21T10:11:18.683Z,26.01
2018-05-21T10:12:18.643Z,26.01
2018-05-21T10:13:18.643Z,25.96
2018-05-21T10:14:18.578Z,25.98
2018-05-21T10:15:18.538Z,25.96
2018-05-21T10:16:18.506Z,26.01
2018-05-21T10:17:18.468Z,26.01
2018-05-21T10:18:18.431Z,25.96
2018-05-21T10:19:18.438Z,26.11
2018-05-21T10:20:18.356Z,25.99
2018-05-21T10:21:18.327Z,26.07
2018-05-21T10:22:18.284Z,26.06
2018-05-21T10:23:18.249Z,25.99
2018-05-21T10:24:18.222Z,26.03
2018-05-21T10:25:18.644Z,26.03
2018-05-21T10:26:18.145Z,25.99
2018-05-21T10:27:18.111Z,25.96
2018-05-21T10:28:18.073Z,25.96
2018-05-21T10:29:18.041Z,26.07
2018-05-21T10:30:18.002Z,26.04
2018-05-21T10:31:18.045Z,26.01
2018-05-21T10:32:17.932Z,26.04
2018-05-21T10:33:17.903Z,25.99
2018-05-21T10:34:17.858Z,25.99
2018-05-21T10:35:17.830Z,26.06
2018-05-21T10:36:17.791Z,25.98
2018-05-21T10:37:18.839Z,26.11
2018-05-21T10:38:17.784Z,25.98
2018-05-21T10:39:17.688Z,26.03
2018-05-21T10:40:17.651Z,26.01
2018-05-21T10:41:17.613Z,26.03
2018-05-21T10:42:17.582Z,26.03
2018-05-21T10:43:17.569Z,25.99
2018-05-21T10:44:17.507Z,25.92
2018-05-21T10:45:17.469Z,26.03
2018-05-21T10:46:17.435Z,25.98
2018-05-21T10:47:17.398Z,25.98
2018-05-21T10:48:17.366Z,26.01
2018-05-21T10:49:17.351Z,25.95
2018-05-21T10:50:17.291Z,25.92
2018-05-21T10:51:17.897Z,26.03
2018-05-21T10:52:17.222Z,25.96
2018-05-21T10:53:17.198Z,25.91
2018-05-21T10:54:17.150Z,25.89
2018-05-21T10:55:17.143Z,25.91
2018-05-21T10:56:17.161Z,25.89
2018-05-21T10:57:17.046Z,25.92
2018-05-21T10:58:17.009Z,25.93
2018-05-21T10:59:17.618Z,25.93
2018-05-21T11:00:16.937Z,25.88
2018-05-21T11:01:16.933Z,25.89
2018-05-21T11:02:16.865Z,25.92
2018-05-21T11:03:16.834Z,25.96
2018-05-21T11:04:16.795Z,25.89
2018-05-21T11:05:16.771Z,25.93
2018-05-21T11:06:16.725Z,25.92
2018-05-21T11:07:16.721Z,25.91
2018-05-21T11:08:16.656Z,25.88
2018-05-21T11:09:16.620Z,25.92
2018-05-21T11:10:16.590Z,25.96
2018-05-21T11:11:16.555Z,25.89
2018-05-21T11:12:16.547Z,25.93
2018-05-21T11:13:16.500Z,25.96
2018-05-21T11:14:16.443Z,25.91
2018-05-21T11:15:16.409Z,25.99
2018-05-21T11:16:17.121Z,26.04
2018-05-21T11:17:16.365Z,26.04
2018-05-21T11:18:16.302Z,25.95
2018-05-21T11:19:16.288Z,25.99
2018-05-21T11:20:16.229Z,25.96
2018-05-21T11:21:16.190Z,25.99
2018-05-21T11:22:16.158Z,26.03
2018-05-21T11:23:16.121Z,25.99
2018-05-21T11:24:16.081Z,25.96
2018-05-21T11:25:16.079Z,25.99
2018-05-21T11:26:16.014Z,25.98
2018-05-21T11:27:15.991Z,26.01
2018-05-21T11:28:15.943Z,26.07
2018-05-21T11:29:15.910Z,26.01
2018-05-21T11:30:15.871Z,25.99
2018-05-21T11:31:15.975Z,26.04
2018-05-21T11:32:15.846Z,25.98
2018-05-21T11:33:15.765Z,26.03
2018-05-21T11:34:15.731Z,25.99
2018-05-21T11:35:15.693Z,26.10
2018-05-21T11:36:15.653Z,26.03
2018-05-21T11:37:15.621Z,26.01
2018-05-21T11:38:15.604Z,25.99
2018-05-21T11:39:15.550Z,25.99
2018-05-21T11:40:15.518Z,25.98
2018-05-21T11:41:15.479Z,26.07
2018-05-21T11:42:15.444Z,26.01
2018-05-21T11:43:15.405Z,26.01
2018-05-21T11:44:15.399Z,25.98
2018-05-21T11:45:15.338Z,26.03
2018-05-21T11:46:15.335Z,26.01
2018-05-21T11:47:15.261Z,26.10
2018-05-21T11:48:15.229Z,25.99
2018-05-21T11:49:15.208Z,26.10
2018-05-21T11:50:15.181Z,25.95
2018-05-21T11:51:15.120Z,26.04
2018-05-21T11:52:15.089Z,26.04
2018-05-21T11:53:15.050Z,25.99
2018-05-21T11:54:15.038Z,26.03
2018-05-21T11:55:14.980Z,25.96
2018-05-21T11:56:14.976Z,25.99
2018-05-21T11:57:14.912Z,26.11
2018-05-21T11:58:14.874Z,26.07
2018-05-21T11:59:14.841Z,26.08
2018-05-21T12:00:14.802Z,26.08
2018-05-21T12:01:14.770Z,26.11
2018-05-21T12:02:14.751Z,26.07
2018-05-21T12:03:14.699Z,26.10
2018-05-21T12:04:14.664Z,26.10
2018-05-21T12:05:14.629Z,26.07
2018-05-21T12:06:14.590Z,26.15
2018-05-21T12:07:14.557Z,26.08
2018-05-21T12:08:14.542Z,26.10
2018-05-21T12:09:14.486Z,26.15
2018-05-21T12:10:14.449Z,26.15
2018-05-21T12:11:14.424Z,26.11
2018-05-21T12:12:14.380Z,26.11
2018-05-21T12:13:14.343Z,26.07
2018-05-21T12:14:14.334Z,26.07
2018-05-21T12:15:14.275Z,26.11
2018-05-21T12:16:14.239Z,26.16
2018-05-21T12:17:14.207Z,26.16
2018-05-21T12:18:14.167Z,26.13
2018-05-21T12:19:14.131Z,26.11
2018-05-21T12:20:14.120Z,26.18
2018-05-21T12:21:14.060Z,26.10
2018-05-21T12:22:14.026Z,26.19
2018-05-21T12:23:13.995Z,26.13
2018-05-21T12:24:13.957Z,26.22
2018-05-21T12:25:13.918Z,26.16
2018-05-21T12:26:14.630Z,26.15
2018-05-21T12:27:13.847Z,26.15
2018-05-21T12:28:13.813Z,26.13
2018-05-21T12:29:13.787Z,26.13
2018-05-21T12:30:13.741Z,26.15
2018-05-21T12:31:13.710Z,26.18
2018-05-21T12:32:13.691Z,26.15
2018-05-21T12:33:13.638Z,26.15
2018-05-21T12:34:13.599Z,26.18
2018-05-21T12:35:13.569Z,26.22
2018-05-21T12:36:13.530Z,26.15
2018-05-21T12:37:13.497Z,26.15
2018-05-21T12:38:13.481Z,26.18
2018-05-21T12:39:13.426Z,26.19
2018-05-21T12:40:13.390Z,26.15
2018-05-21T12:41:13.359Z,26.19
2018-05-21T12:42:13.320Z,26.19
2018-05-21T12:43:13.285Z,26.18
2018-05-21T12:44:13.276Z,26.19
2018-05-21T12:45:13.214Z,26.24
2018-05-21T12:46:13.180Z,26.34
2018-05-21T12:47:13.141Z,26.18
2018-05-21T12:48:13.112Z,26.26
2018-05-21T12:49:13.098Z,26.33
2018-05-21T12:50:13.039Z,26.31
2018-05-21T12:51:13.005Z,26.23
2018-05-21T12:52:12.968Z,26.27
2018-05-21T12:53:12.934Z,26.26
2018-05-21T12:54:12.898Z,26.31
2018-05-21T12:55:12.964Z,26.36